createdAt,value
2018-05-09T00:00:59.787Z,13.70
2018-05-09T00:03:31.725Z,13.70
2018-05-09T00:06:00.593Z,13.60
2018-05-09T00:08:28.074Z,13.60
2018-05-09T00:10:56.543Z,13.70
2018-05-09T00:13:24.487Z,13.70
2018-05-09T00:15:52.545Z,13.70
2018-05-09T00:18:23.017Z,13.70
2018-05-09T00:20:51.080Z,13.60
2018-05-09T00:23:18.797Z,13.60
2018-05-09T00:25:46.301Z,13.50
2018-05-09T00:28:13.911Z,13.50
2018-05-09T00:30:41.739Z,13.50
2018-05-09T00:33:21.013Z,13.30
2018-05-09T00:35:51.736Z,13.30
2018-05-09T00:38:19.222Z,13.30
2018-05-09T00:40:46.783Z,13.30
2018-05-09T00:43:14.258Z,13.30
2018-05-09T00:45:41.737Z,13.30
2018-05-09T00:48:09.979Z,13.30
2018-05-09T00:50:41.172Z,13.30
2018-05-09T00:53:09.406Z,13.20
2018-05-09T00:55:36.892Z,13.10
2018-05-09T00:58:05.060Z,13.10
2018-05-09T01:00:32.542Z,13.10
2018-05-09T01:03:00.024Z,13.00
2018-05-09T01:05:31.432Z,13.00
2018-05-09T01:07:58.898Z,13.00
2018-05-09T01:10:26.383Z,13.10
2018-05-09T01:12:55.424Z,13.20
2018-05-09T01:15:22.916Z,13.20
2018-05-09T01:17:50.406Z,13.30
2018-05-09T01:20:21.085Z,13.40
2018-05-09T01:22:48.544Z,13.30
2018-05-09T01:25:16.775Z,13.10
2018-05-09T01:27:44.272Z,13.10
2018-05-09T01:30:12.489Z,12.90
2018-05-09T01:32:40.467Z,12.90
2018-05-09T01:35:11.860Z,12.90
2018-05-09T01:37:39.324Z,12.80
2018-05-09T01:40:06.792Z,12.80
2018-05-09T01:42:34.267Z,12.70
2018-05-09T01:45:01.749Z,12.70
2018-05-09T01:47:29.249Z,12.60
2018-05-09T01:49:56.735Z,12.50
2018-05-09T01:52:24.231Z,12.50
2018-05-09T01:54:52.453Z,12.50
2018-05-09T01:57:20.107Z,12.50
2018-05-09T01:59:47.572Z,12.50
2018-05-09T02:02:15.092Z,12.50
2018-05-09T02:04:42.544Z,12.50
2018-05-09T02:07:13.029Z,12.60
2018-05-09T02:09:42.361Z,12.90
2018-05-09T02:12:11.684Z,12.80
2018-05-09T02:14:39.171Z,12.80
2018-05-09T02:17:07.827Z,12.80
2018-05-09T02:19:38.888Z,12.70
2018-05-09T02:22:06.331Z,12.80
2018-05-09T02:24:33.819Z,12.80
2018-05-09T02:27:03.381Z,12.90
2018-05-09T02:29:30.839Z,12.90
2018-05-09T02:31:59.320Z,12.90
2018-05-09T02:34:26.820Z,13.00
2018-05-09T02:36:55.088Z,13.10
2018-05-09T02:39:22.568Z,13.10
2018-05-09T02:41:51.743Z,13.10
2018-05-09T02:44:19.709Z,13.10
2018-05-09T02:46:47.177Z,13.10
2018-05-09T02:49:16.374Z,13.30
2018-05-09T02:51:46.893Z,13.30
2018-05-09T02:54:14.357Z,13.40
2018-05-09T02:56:41.904Z,13.40
2018-05-09T02:59:09.988Z,13.50
2018-05-09T03:01:37.443Z,13.50
2018-05-09T03:04:05.277Z,13.50
2018-05-09T03:06:32.766Z,13.50
2018-05-09T03:09:00.251Z,13.50
2018-05-09T03:11:27.724Z,13.40
2018-05-09T03:13:55.384Z,13.40
2018-05-09T03:16:22.849Z,13.40
2018-05-09T03:18:50.360Z,13.50
2018-05-09T03:21:20.876Z,13.50
2018-05-09T03:23:48.348Z,13.30
2018-05-09T03:26:15.828Z,13.40
2018-05-09T03:31:17.781Z,13.60
2018-05-09T03:33:45.237Z,13.50
2018-05-09T03:36:15.661Z,13.40
2018-05-09T03:38:43.119Z,13.40
2018-05-09T03:41:10.655Z,13.40
2018-05-09T03:43:38.445Z,13.50
2018-05-09T03:46:05.947Z,13.40
2018-05-09T03:48:33.881Z,13.40
2018-05-09T03:51:04.793Z,13.50
2018-05-09T03:53:32.273Z,13.50
2018-05-09T03:56:00.519Z,13.50
2018-05-09T03:58:27.997Z,13.50
2018-05-09T04:00:55.642Z,13.40
2018-05-09T04:03:35.900Z,13.50
2018-05-09T04:06:23.429Z,13.50
2018-05-09T04:09:03.065Z,13.60
2018-05-09T04:11:30.554Z,13.60
2018-05-09T04:13:58.787Z,13.60
2018-05-09T04:16:26.295Z,13.60
2018-05-09T04:18:53.756Z,13.60
2018-05-09T04:21:25.960Z,13.60
2018-05-09T04:23:53.449Z,13.60
2018-05-09T04:26:20.892Z,13.60
2018-05-09T04:28:48.381Z,13.70
2018-05-09T04:31:18.650Z,13.80
2018-05-09T04:33:46.489Z,13.80
2018-05-09T04:36:15.306Z,14.00
2018-05-09T04:38:43.522Z,14.00
2018-05-09T04:41:11.007Z,14.10
2018-05-09T04:43:40.405Z,14.20
2018-05-09T04:46:08.128Z,14.40
2018-05-09T04:48:35.762Z,14.50
2018-05-09T04:51:04.688Z,14.50
2018-05-09T04:53:32.180Z,14.60
2018-05-09T04:55:59.684Z,14.60
2018-05-09T04:58:27.708Z,14.70
2018-05-09T05:00:55.936Z,14.90
2018-05-09T05:03:23.486Z,14.90
2018-05-09T05:05:50.949Z,15.00
2018-05-09T05:08:19.299Z,15.20
2018-05-09T05:10:46.811Z,15.50
2018-05-09T05:13:15.285Z,15.80
2018-05-09T05:15:43.729Z,16.40
2018-05-09T05:18:12.036Z,17.00
2018-05-09T05:20:39.543Z,17.60
2018-05-09T05:23:08.306Z,18.50
2018-05-09T05:25:38.844Z,18.40
2018-05-09T05:28:06.299Z,18.70
2018-05-09T05:30:34.643Z,18.60
2018-05-09T05:33:03.387Z,18.50
2018-05-09T05:35:31.161Z,18.50
2018-05-09T05:37:59.444Z,18.70
2018-05-09T05:40:26.989Z,19.10
2018-05-09T05:42:54.499Z,19.40
2018-05-09T05:45:22.013Z,19.60
2018-05-09T05:47:49.489Z,20.10
2018-05-09T05:50:17.692Z,20.90
2018-05-09T05:52:45.369Z,21.90
2018-05-09T05:55:12.869Z,22.90
2018-05-09T05:57:41.193Z,23.30
2018-05-09T06:00:08.666Z,23.80
2018-05-09T06:02:37.035Z,24.20
2018-05-09T06:05:04.530Z,24.30
2018-05-09T06:07:32.889Z,24.50
2018-05-09T06:10:03.823Z,24.20
2018-05-09T06:12:32.056Z,23.80
2018-05-09T06:15:01.258Z,23.80
2018-05-09T06:17:28.757Z,23.80
2018-05-09T06:19:56.296Z,23.50
2018-05-09T06:22:23.758Z,22.90
2018-05-09T06:24:54.981Z,22.00
2018-05-09T06:27:22.433Z,21.00
2018-05-09T06:29:50.287Z,20.30
2018-05-09T06:32:17.835Z,19.80
2018-05-09T06:34:45.316Z,19.40
2018-05-09T06:37:12.800Z,19.10
2018-05-09T06:39:43.313Z,18.80
2018-05-09T06:42:10.787Z,18.60
2018-05-09T06:44:38.449Z,18.60
2018-05-09T06:47:05.910Z,18.50
2018-05-09T06:49:34.327Z,18.40
2018-05-09T06:52:02.457Z,18.40
2018-05-09T06:54:33.751Z,18.40
2018-05-09T06:57:01.211Z,18.50
2018-05-09T06:59:30.924Z,18.50
2018-05-09T07:01:59.305Z,18.50
2018-05-09T07:04:27.848Z,18.50
2018-05-09T07:06:55.407Z,18.60
2018-05-09T07:09:27.387Z,18.70
2018-05-09T07:11:55.518Z,18.70
2018-05-09T07:14:23.021Z,18.80
2018-05-09T07:16:50.992Z,18.80
2018-05-09T07:19:20.138Z,19.00
2018-05-09T07:21:47.710Z,19.00
2018-05-09T07:24:15.206Z,19.10
2018-05-09T07:26:42.822Z,19.10
2018-05-09T07:29:10.300Z,19.10
2018-05-09T07:31:38.277Z,19.10
2018-05-09T07:34:05.766Z,19.10
2018-05-09T07:36:33.266Z,19.20
2018-05-09T07:39:00.750Z,19.20
2018-05-09T07:41:28.208Z,19.30
2018-05-09T07:43:57.329Z,19.40
2018-05-09T07:46:25.552Z,19.40
2018-05-09T07:48:53.138Z,19.50
2018-05-09T07:51:21.440Z,19.50
2018-05-09T07:53:49.745Z,19.60
2018-05-09T07:56:20.318Z,19.60
2018-05-09T07:58:48.061Z,19.60
2018-05-09T08:01:15.536Z,19.60
2018-05-09T08:03:43.027Z,19.70
2018-05-09T08:06:10.497Z,19.80
2018-05-09T08:08:38.714Z,19.90
2018-05-09T08:11:10.478Z,20.00
2018-05-09T08:13:38.700Z,19.90
2018-05-09T08:16:06.895Z,19.90
2018-05-09T08:18:34.483Z,19.90
2018-05-09T08:21:01.979Z,19.90
2018-05-09T08:23:29.452Z,20.00
2018-05-09T08:26:00.959Z,20.00
2018-05-09T08:28:29.213Z,20.10
2018-05-09T08:30:56.676Z,20.10
2018-05-09T08:33:24.230Z,20.20
2018-05-09T08:35:51.906Z,20.30
2018-05-09T08:38:19.385Z,20.40
2018-05-09T08:40:47.800Z,20.50
2018-05-09T08:45:49.568Z,20.60
2018-05-09T08:48:17.049Z,20.60
2018-05-09T08:50:44.505Z,20.60
2018-05-09T08:53:11.961Z,20.60
2018-05-09T08:55:40.383Z,20.80
2018-05-09T08:58:11.217Z,20.90
2018-05-09T09:00:39.461Z,21.00
2018-05-09T09:03:06.961Z,21.00
2018-05-09T09:05:34.599Z,20.90
2018-05-09T09:08:02.061Z,20.90
2018-05-09T09:10:30.570Z,20.90
2018-05-09T09:12:58.580Z,21.00
2018-05-09T09:15:26.795Z,21.10
2018-05-09T09:17:54.247Z,21.20
2018-05-09T09:20:21.871Z,21.40
2018-05-09T09:22:50.324Z,21.40
2018-05-09T09:25:17.882Z,21.40
2018-05-09T09:27:45.368Z,21.40
2018-05-09T09:30:12.849Z,21.40
2018-05-09T09:32:40.329Z,21.40
2018-05-09T09:35:09.495Z,21.40
2018-05-09T09:37:37.515Z,21.40
2018-05-09T09:40:05.012Z,21.50
2018-05-09T09:42:33.337Z,21.70
2018-05-09T09:45:01.668Z,21.80
2018-05-09T09:47:29.140Z,21.80
2018-05-09T09:49:56.612Z,21.80
2018-05-09T09:52:25.586Z,21.80
2018-05-09T09:54:53.068Z,21.80
2018-05-09T09:57:20.559Z,21.80
2018-05-09T09:59:48.051Z,22.00
2018-05-09T10:02:15.500Z,22.20
2018-05-09T10:04:43.860Z,22.40
2018-05-09T10:07:12.003Z,22.40
2018-05-09T10:09:39.462Z,22.50
2018-05-09T10:12:06.961Z,22.50
2018-05-09T10:14:34.453Z,22.50
2018-05-09T10:17:02.012Z,22.50
2018-05-09T10:19:29.492Z,22.50
2018-05-09T10:21:57.745Z,22.70
2018-05-09T10:24:26.003Z,22.70
2018-05-09T10:26:53.458Z,22.90
2018-05-09T10:29:20.940Z,23.10
2018-05-09T10:31:48.397Z,23.30
2018-05-09T10:34:15.876Z,23.30
2018-05-09T10:36:43.389Z,23.30
2018-05-09T10:39:11.653Z,23.30
2018-05-09T10:41:39.556Z,23.30
2018-05-09T10:44:07.380Z,23.40
2018-05-09T10:46:34.858Z,23.40
2018-05-09T10:49:03.235Z,23.70
2018-05-09T10:51:30.689Z,24.20
2018-05-09T10:53:58.970Z,24.70
2018-05-09T10:56:26.555Z,25.00
2018-05-09T10:58:58.708Z,25.10
2018-05-09T11:01:26.165Z,25.20
2018-05-09T11:03:54.828Z,25.40
2018-05-09T11:06:22.310Z,25.40
2018-05-09T11:08:49.802Z,25.40
2018-05-09T11:11:17.262Z,25.40
2018-05-09T11:13:48.049Z,25.50
2018-05-09T11:16:15.525Z,25.70
2018-05-09T11:18:44.261Z,26.00
2018-05-09T11:21:11.761Z,25.90
2018-05-09T11:23:39.333Z,25.90
2018-05-09T11:26:06.800Z,25.90
2018-05-09T11:28:38.772Z,26.40
2018-05-09T11:31:06.379Z,26.40
2018-05-09T11:33:33.926Z,26.50
2018-05-09T11:36:01.646Z,26.50
2018-05-09T11:38:29.237Z,26.40
2018-05-09T11:40:57.940Z,26.40
2018-05-09T11:43:25.602Z,26.50
2018-05-09T11:45:55.024Z,26.60
2018-05-09T11:48:22.552Z,26.70
2018-05-09T11:50:52.654Z,26.50
2018-05-09T11:53:20.154Z,26.50
2018-05-09T11:55:47.664Z,26.50
2018-05-09T11:58:15.156Z,26.30
2018-05-09T12:00:45.937Z,26.20
2018-05-09T12:03:13.758Z,25.90
2018-05-09T12:05:42.771Z,26.20
2018-05-09T12:08:10.277Z,26.20
2018-05-09T12:10:37.789Z,26.30
2018-05-09T12:13:05.272Z,26.60
2018-05-09T12:15:37.219Z,26.80
2018-05-09T12:18:04.723Z,26.80
2018-05-09T12:20:32.390Z,26.90
2018-05-09T12:22:59.859Z,26.90
2018-05-09T12:25:27.369Z,27.10
2018-05-09T12:27:54.828Z,27.10
2018-05-09T12:30:25.234Z,27.30
2018-05-09T12:32:52.782Z,27.50
2018-05-09T12:35:21.164Z,27.40
2018-05-09T12:37:48.669Z,27.10
2018-05-09T12:40:16.577Z,26.70
2018-05-09T12:42:44.066Z,26.50
2018-05-09T12:45:21.860Z,26.30
2018-05-09T12:47:49.329Z,26.20
2018-05-09T12:50:17.556Z,26.20
2018-05-09T12:52:45.067Z,26.10
2018-05-09T12:55:13.296Z,27.10
2018-05-09T12:57:41.280Z,27.10
2018-05-09T13:00:12.111Z,27.50
2018-05-09T13:02:39.595Z,27.50
2018-05-09T13:05:07.299Z,27.60
2018-05-09T13:07:34.716Z,27.90
2018-05-09T13:10:02.268Z,28.00
2018-05-09T13:12:29.715Z,27.80
2018-05-09T13:14:57.182Z,27.70
2018-05-09T13:17:29.707Z,27.60
2018-05-09T13:19:57.390Z,27.60
2018-05-09T13:22:25.592Z,27.70
2018-05-09T13:24:53.123Z,27.50
2018-05-09T13:27:20.592Z,27.20
2018-05-09T13:29:48.049Z,27.10
2018-05-09T13:32:19.734Z,26.90
2018-05-09T13:34:47.184Z,26.80
2018-05-09T13:37:15.119Z,26.50
2018-05-09T13:39:42.581Z,26.20
2018-05-09T13:42:10.074Z,26.00
2018-05-09T13:44:37.523Z,26.20
2018-05-09T13:47:07.761Z,26.40
2018-05-09T13:49:35.222Z,26.50
2018-05-09T13:52:03.480Z,26.60
2018-05-09T13:54:31.398Z,26.60
2018-05-09T13:56:59.849Z,26.60
2018-05-09T13:59:27.294Z,26.70
2018-05-09T14:02:02.850Z,26.90
2018-05-09T14:04:31.077Z,27.80
2018-05-09T14:07:01.065Z,28.20
2018-05-09T14:09:28.563Z,28.10
2018-05-09T14:11:56.774Z,28.80
2018-05-09T14:14:25.961Z,28.90
2018-05-09T14:16:58.435Z,28.80
2018-05-09T14:19:26.656Z,28.80
2018-05-09T14:21:54.164Z,28.50
2018-05-09T14:24:21.623Z,27.70
2018-05-09T14:26:49.109Z,27.10
2018-05-09T14:29:16.648Z,26.60
2018-05-09T14:31:45.392Z,26.10
2018-05-09T14:34:13.787Z,26.10
2018-05-09T14:36:41.268Z,26.30
2018-05-09T14:39:11.089Z,27.00
2018-05-09T14:41:38.585Z,27.00
2018-05-09T14:44:06.085Z,27.40
2018-05-09T14:46:34.467Z,27.80
2018-05-09T14:49:03.419Z,27.60
2018-05-09T14:51:30.892Z,27.50
2018-05-09T14:53:59.906Z,26.50
2018-05-09T14:56:27.376Z,26.50
2018-05-09T14:58:54.823Z,26.00
2018-05-09T15:01:22.328Z,25.70
2018-05-09T15:03:49.854Z,25.60
2018-05-09T15:06:18.040Z,25.50
2018-05-09T15:08:46.294Z,25.60
2018-05-09T15:11:13.797Z,25.60
2018-05-09T15:13:41.288Z,25.80
2018-05-09T15:16:08.868Z,26.00
2018-05-09T15:18:36.630Z,26.30
2018-05-09T15:21:04.100Z,26.50
2018-05-09T15:23:32.869Z,26.70
2018-05-09T15:26:00.328Z,26.70
2018-05-09T15:28:28.973Z,26.50
2018-05-09T15:30:56.499Z,26.40
2018-05-09T15:33:27.597Z,25.90
2018-05-09T15:35:55.060Z,25.60
2018-05-09T15:38:23.138Z,25.20
2018-05-09T15:40:51.566Z,25.10
2018-05-09T15:43:19.042Z,25.10
2018-05-09T15:45:47.819Z,25.20
2018-05-09T15:48:15.297Z,25.20
2018-05-09T15:50:42.789Z,25.20
2018-05-09T15:53:12.172Z,25.30
2018-05-09T15:55:39.648Z,25.30
2018-05-09T15:58:07.094Z,25.50
2018-05-09T16:00:34.569Z,25.60
2018-05-09T16:03:10.365Z,25.80
2018-05-09T16:05:37.870Z,25.80
2018-05-09T16:08:05.334Z,25.80
2018-05-09T16:10:32.830Z,25.80
2018-05-09T16:13:01.701Z,25.60
2018-05-09T16:15:29.278Z,25.50
2018-05-09T16:17:56.924Z,25.40
2018-05-09T16:20:24.454Z,25.40
2018-05-09T16:22:53.054Z,25.60
2018-05-09T16:25:21.851Z,26.40
2018-05-09T16:27:51.394Z,28.20
2018-05-09T16:30:20.636Z,28.10
2018-05-09T16:32:49.072Z,29.90
2018-05-09T16:35:16.554Z,30.60
2018-05-09T16:37:44.720Z,31.70
2018-05-09T16:40:12.364Z,32.80
2018-05-09T16:42:40.676Z,34.10
2018-05-09T16:45:09.180Z,34.00
2018-05-09T16:47:38.473Z,34.30
2018-05-09T16:50:06.040Z,34.00
2018-05-09T16:52:34.971Z,33.90
2018-05-09T16:55:03.728Z,33.90
2018-05-09T16:57:32.012Z,33.30
2018-05-09T17:00:01.428Z,33.20
2018-05-09T17:02:30.794Z,33.30
2018-05-09T17:05:01.870Z,33.30
2018-05-09T17:07:31.669Z,33.20
2018-05-09T17:10:00.895Z,32.20
2018-05-09T17:12:28.631Z,32.20
2018-05-09T17:14:56.400Z,31.10
2018-05-09T17:17:23.914Z,30.00
2018-05-09T17:19:54.809Z,29.60
2018-05-09T17:22:32.160Z,28.40
2018-05-09T17:25:00.416Z,26.20
2018-05-09T17:27:27.926Z,26.20
2018-05-09T17:29:55.401Z,25.60
2018-05-09T17:32:22.951Z,25.10
2018-05-09T17:34:50.560Z,24.70
2018-05-09T17:37:21.690Z,24.40
2018-05-09T17:39:50.109Z,24.20
2018-05-09T17:42:17.828Z,24.10
2018-05-09T17:44:45.824Z,23.90
2018-05-09T17:47:14.179Z,23.50
2018-05-09T17:49:42.281Z,23.50
2018-05-09T17:52:11.444Z,23.00
2018-05-09T17:54:38.953Z,23.00
2018-05-09T17:57:07.812Z,22.60
2018-05-09T17:59:35.936Z,22.60
2018-05-09T18:02:03.515Z,22.40
2018-05-09T18:04:31.008Z,22.30
2018-05-09T18:06:58.460Z,22.20
2018-05-09T18:09:25.922Z,22.00
2018-05-09T18:11:55.145Z,21.60
2018-05-09T18:14:22.728Z,21.50
2018-05-09T18:16:50.218Z,21.40
2018-05-09T18:19:17.980Z,21.30
2018-05-09T18:21:45.470Z,21.10
2018-05-09T18:24:14.619Z,21.00
2018-05-09T18:26:42.120Z,20.90
2018-05-09T18:29:09.622Z,20.90
2018-05-09T18:31:37.080Z,20.70
2018-05-09T18:34:04.606Z,20.60
2018-05-09T18:36:32.099Z,20.50
2018-05-09T18:38:59.599Z,20.40
2018-05-09T18:41:28.018Z,20.30
2018-05-09T18:43:57.543Z,20.20
2018-05-09T18:46:25.128Z,20.20
2018-05-09T18:48:54.021Z,20.00
2018-05-09T18:51:21.471Z,20.00
2018-05-09T18:53:50.420Z,19.90
2018-05-09T18:56:18.117Z,19.80
2018-05-09T18:58:49.778Z,19.80
2018-05-09T19:01:18.193Z,19.90
2018-05-09T19:03:45.718Z,19.80
2018-05-09T19:06:17.817Z,19.70
2018-05-09T19:08:45.384Z,19.60
2018-05-09T19:11:13.607Z,19.50
2018-05-09T19:13:41.172Z,19.40
2018-05-09T19:16:09.630Z,19.20
2018-05-09T19:18:37.264Z,19.20
2018-05-09T19:21:04.769Z,19.10
2018-05-09T19:23:32.258Z,19.10
2018-05-09T19:26:03.661Z,19.00
2018-05-09T19:28:31.161Z,18.90
2018-05-09T19:30:58.627Z,18.90
2018-05-09T19:33:26.305Z,18.80
2018-05-09T19:35:53.917Z,18.80
2018-05-09T19:38:21.726Z,18.70
2018-05-09T19:40:49.225Z,18.70
2018-05-09T19:43:16.918Z,18.60
2018-05-09T19:45:45.059Z,18.60
2018-05-09T19:48:12.687Z,18.60
2018-05-09T19:50:40.253Z,18.50
2018-05-09T19:53:13.178Z,18.40
2018-05-09T19:55:40.823Z,18.40
2018-05-09T19:58:08.338Z,18.30
2018-05-09T20:00:36.493Z,18.30
2018-05-09T20:03:05.386Z,18.30
2018-05-09T20:05:33.921Z,18.20
2018-05-09T20:08:04.931Z,18.10
2018-05-09T20:10:32.394Z,18.10
2018-05-09T20:12:59.909Z,18.10
2018-05-09T20:15:27.405Z,18.00
2018-05-09T20:17:56.665Z,17.90
2018-05-09T20:20:25.040Z,17.80
2018-05-09T20:22:52.574Z,17.80
2018-05-09T20:25:21.199Z,17.80
2018-05-09T20:27:48.705Z,17.70
2018-05-09T20:30:21.930Z,17.70
2018-05-09T20:32:49.481Z,17.60
2018-05-09T20:35:17.934Z,17.30
2018-05-09T20:37:49.797Z,17.30
2018-05-09T20:40:17.695Z,17.10
2018-05-09T20:42:47.513Z,17.20
2018-05-09T20:45:15.116Z,17.10
2018-05-09T20:47:42.643Z,17.00
2018-05-09T20:50:11.888Z,16.80
2018-05-09T20:52:40.256Z,16.70
2018-05-09T20:55:16.198Z,16.70
2018-05-09T20:57:43.754Z,16.70
2018-05-09T21:00:11.373Z,16.60
2018-05-09T21:02:38.902Z,16.50
2018-05-09T21:05:07.024Z,16.40
2018-05-09T21:07:47.067Z,16.40
2018-05-09T21:10:14.660Z,16.30
2018-05-09T21:12:42.229Z,16.30
2018-05-09T21:15:10.189Z,16.30
2018-05-09T21:17:37.913Z,16.20
2018-05-09T21:20:05.553Z,16.20
2018-05-09T21:22:33.063Z,16.10
2018-05-09T21:25:00.579Z,16.10
2018-05-09T21:27:28.048Z,16.10
2018-05-09T21:29:55.575Z,16.10
2018-05-09T21:32:24.012Z,15.90
2018-05-09T21:34:52.412Z,15.90
2018-05-09T21:37:19.966Z,15.90
2018-05-09T21:39:47.666Z,15.80
2018-05-09T21:42:17.124Z,15.70
2018-05-09T21:44:46.874Z,15.60
2018-05-09T21:47:14.386Z,15.50
2018-05-09T21:49:42.582Z,15.50
2018-05-09T21:52:10.116Z,15.30
2018-05-09T21:54:41.357Z,15.30
2018-05-09T21:57:08.824Z,15.20
2018-05-09T21:59:36.580Z,15.20
2018-05-09T22:02:04.600Z,15.10
2018-05-09T22:04:32.977Z,15.00
2018-05-09T22:07:00.983Z,14.90
2018-05-09T22:09:31.711Z,15.00
2018-05-09T22:11:59.941Z,14.90
2018-05-09T22:14:27.419Z,14.80
2018-05-09T22:16:55.858Z,14.80
2018-05-09T22:19:24.847Z,14.70
2018-05-09T22:21:52.324Z,14.70
2018-05-09T22:24:21.480Z,14.50
2018-05-09T22:26:48.985Z,14.50
2018-05-09T22:29:17.266Z,14.40
2018-05-09T22:31:45.488Z,14.40
2018-05-09T22:34:12.950Z,14.40
2018-05-09T22:36:40.455Z,14.30
2018-05-09T22:39:08.673Z,14.20
2018-05-09T22:41:36.142Z,14.20
2018-05-09T22:44:03.644Z,14.20
2018-05-09T22:46:31.677Z,14.20
2018-05-09T22:49:01.488Z,14.10
2018-05-09T22:51:30.156Z,14.10
2018-05-09T22:53:57.615Z,14.10
2018-05-09T22:56:25.122Z,14.10
2018-05-09T22:58:52.585Z,14.00
2018-05-09T23:01:20.620Z,14.00
2018-05-09T23:03:48.361Z,13.90
2018-05-09T23:06:15.816Z,13.80
2018-05-09T23:08:43.322Z,13.80
2018-05-09T23:11:10.808Z,13.70
2018-05-09T23:13:39.087Z,13.70
2018-05-09T23:16:08.371Z,13.70
2018-05-09T23:18:36.690Z,13.70
2018-05-09T23:21:04.856Z,13.70
2018-05-09T23:23:33.348Z,13.60
2018-05-09T23:26:04.956Z,13.60
2018-05-09T23:28:33.694Z,13.40
2018-05-09T23:31:01.263Z,13.40
2018-05-09T23:33:28.669Z,13.40
2018-05-09T23:35:56.917Z,13.40
2018-05-09T23:38:25.083Z,13.40
2018-05-09T23:40:57.709Z,13.40
2018-05-09T23:43:25.769Z,13.40
2018-05-09T23:45:53.773Z,13.40
2018-05-09T23:48:21.249Z,13.50
2018-05-09T23:50:48.734Z,13.40
2018-05-09T23:53:17.005Z,13.40
2018-05-09T23:55:49.004Z,13.40
2018-05-09T23:58:16.851Z,13.30
